Horton, Kentucky
Current Conditions -  °F | °C
As of 2:15 AM on Monday 26 Jan 2015 (Local Time) from K2I0 Reporting Station
Overcast Overcast  
Wind Chill: -5°   Ceiling: 1000
Heat Index:   Visibility: 10mi
Dew Point:   Wind: 14mph
Humidity: 93%   Direction: 330°NNW
Pressure: 29.9"   Gusts: 22mph
Location:  37.3559°N, 86.8747°W
Report Text: K2I0 260815Z AUTO 33012G19KT 10SM OVC010 01/00 A2990 RMK AO2 T00081002
Loading
Personal Weather Stations






























Interactive Weather Map New forecast layout! Learn more

10-Day Weather Forecast

Advertisements
Track Severe Weather on mobile